KSRQ/SRQ METAR and TAF weather

Enter ICAO airport designator
Station Type Date Time Source
KSRQ METAR 2019/12/10 18:53 UTC NOAA

KSRQ 101853Z 18014G23KT 10SM SCT055 BKN070 28/22 A3004 RMK AO2 SLP172 T02780217


Station Type Date Time Source
KSRQ Decoded METAR 2019/12/10 18:53 UTC NOAA

SARASOTA/BRADENTON INTERNATIONAL ., FL, United States (KSRQ) 27-24N 082-33W 18M
Dec 10, 2019 - 01:53 PM EST / 2019.12.10 1853 UTC
Wind: from the S (180 degrees) at 16 MPH (14 KT) gusting to 26 MPH (23 KT):0
Visibility: 10 mile(s):0
Sky conditions: mostly cloudy
Temperature: 82.0 F (27.8 C)
Dew Point: 71.1 F (21.7 C)
Relative Humidity: 69%
Pressure (altimeter): 30.04 in. Hg (1017 hPa)
ob: KSRQ 101853Z 18014G23KT 10SM SCT055 BKN070 28/22 A3004 RMK AO2 SLP172 T02780217
cycle: 19

Station Type Date Time Source
KSRQ TAF 2019/12/10 18:42 UTC NOAA

KSRQ 101741Z 1018/1118 19012KT P6SM SCT030 BKN070
FM110200 VRB04KT P6SM SCT025
FM110900 VRB03KT 6SM BR SCT005
FM111500 05007KT P6SM SCT020 BKN050

Example: see airport list